sensor_id;sensor_type;location;lat;lon;timestamp;temperature;humidity
18712;DHT22;9485;49.386;8.674;2023-05-29T00:02:22;23.60;34.40
18712;DHT22;9485;49.386;8.674;2023-05-29T00:07:43;23.50;34.40
18712;DHT22;9485;49.386;8.674;2023-05-29T00:13:04;23.50;34.50
18712;DHT22;9485;49.386;8.674;2023-05-29T00:18:26;23.40;34.50
18712;DHT22;9485;49.386;8.674;2023-05-29T00:23:47;23.40;34.60
18712;DHT22;9485;49.386;8.674;2023-05-29T00:29:08;23.30;34.40
18712;DHT22;9485;49.386;8.674;2023-05-29T00:34:31;23.30;34.40
18712;DHT22;9485;49.386;8.674;2023-05-29T00:39:52;23.30;34.40
18712;DHT22;9485;49.386;8.674;2023-05-29T00:45:13;23.20;34.30
18712;DHT22;9485;49.386;8.674;2023-05-29T00:50:35;23.20;34.40
18712;DHT22;9485;49.386;8.674;2023-05-29T00:55:57;23.20;34.30
18712;DHT22;9485;49.386;8.674;2023-05-29T01:01:19;23.20;34.30
18712;DHT22;9485;49.386;8.674;2023-05-29T01:06:45;23.20;34.40
18712;DHT22;9485;49.386;8.674;2023-05-29T01:12:16;23.20;34.40
18712;DHT22;9485;49.386;8.674;2023-05-29T01:17:54;23.20;34.30
18712;DHT22;9485;49.386;8.674;2023-05-29T01:23:39;23.20;34.40
18712;DHT22;9485;49.386;8.674;2023-05-29T01:29:14;23.30;34.40
18712;DHT22;9485;49.386;8.674;2023-05-29T01:34:36;23.20;34.40
18712;DHT22;9485;49.386;8.674;2023-05-29T01:39:56;23.20;34.40
18712;DHT22;9485;49.386;8.674;2023-05-29T01:45:19;23.20;34.40
18712;DHT22;9485;49.386;8.674;2023-05-29T01:50:41;23.20;34.40
18712;DHT22;9485;49.386;8.674;2023-05-29T01:56:04;23.20;34.40
18712;DHT22;9485;49.386;8.674;2023-05-29T02:01:27;23.20;34.50
18712;DHT22;9485;49.386;8.674;2023-05-29T02:06:49;23.30;34.50
18712;DHT22;9485;49.386;8.674;2023-05-29T02:12:12;23.20;34.60
18712;DHT22;9485;49.386;8.674;2023-05-29T02:17:34;23.20;34.70
18712;DHT22;9485;49.386;8.674;2023-05-29T02:22:55;23.10;34.70
18712;DHT22;9485;49.386;8.674;2023-05-29T02:28:18;23.00;34.70
18712;DHT22;9485;49.386;8.674;2023-05-29T02:33:41;23.60;35.10
18712;DHT22;9485;49.386;8.674;2023-05-29T02:39:01;22.60;35.00
18712;DHT22;9485;49.386;8.674;2023-05-29T02:44:22;22.40;35.00
18712;DHT22;9485;49.386;8.674;2023-05-29T02:49:45;22.20;35.20
18712;DHT22;9485;49.386;8.674;2023-05-29T02:55:06;22.00;35.60
18712;DHT22;9485;49.386;8.674;2023-05-29T03:00:27;21.80;36.30
18712;DHT22;9485;49.386;8.674;2023-05-29T03:05:53;21.70;36.00
18712;DHT22;9485;49.386;8.674;2023-05-29T03:11:13;21.50;36.20
18712;DHT22;9485;49.386;8.674;2023-05-29T03:16:34;21.40;36.30
18712;DHT22;9485;49.386;8.674;2023-05-29T03:21:56;21.30;36.40
18712;DHT22;9485;49.386;8.674;2023-05-29T03:27:17;22.30;37.20
18712;DHT22;9485;49.386;8.674;2023-05-29T03:32:40;21.00;36.90
18712;DHT22;9485;49.386;8.674;2023-05-29T03:38:02;20.80;37.10
18712;DHT22;9485;49.386;8.674;2023-05-29T03:43:23;20.60;37.50
18712;DHT22;9485;49.386;8.674;2023-05-29T03:48:44;20.50;37.60
18712;DHT22;9485;49.386;8.674;2023-05-29T03:54:06;20.30;37.90
18712;DHT22;9485;49.386;8.674;2023-05-29T03:59:27;20.20;38.20
18712;DHT22;9485;49.386;8.674;2023-05-29T04:04:47;20.00;38.40
18712;DHT22;9485;49.386;8.674;2023-05-29T04:10:11;19.90;38.70
18712;DHT22;9485;49.386;8.674;2023-05-29T04:15:32;19.70;39.30
18712;DHT22;9485;49.386;8.674;2023-05-29T04:20:53;19.50;39.30
18712;DHT22;9485;49.386;8.674;2023-05-29T04:26:16;19.50;39.60
18712;DHT22;9485;49.386;8.674;2023-05-29T04:31:36;19.40;40.10
18712;DHT22;9485;49.386;8.674;2023-05-29T04:36:58;19.30;40.10
18712;DHT22;9485;49.386;8.674;2023-05-29T04:42:20;19.20;40.50
18712;DHT22;9485;49.386;8.674;2023-05-29T04:47:42;19.20;41.10
18712;DHT22;9485;49.386;8.674;2023-05-29T04:53:04;19.20;41.90
18712;DHT22;9485;49.386;8.674;2023-05-29T04:58:27;19.20;41.50
18712;DHT22;9485;49.386;8.674;2023-05-29T05:03:47;19.20;41.90
18712;DHT22;9485;49.386;8.674;2023-05-29T05:09:08;19.20;42.00
18712;DHT22;9485;49.386;8.674;2023-05-29T05:14:30;19.30;42.30
18712;DHT22;9485;49.386;8.674;2023-05-29T05:19:52;19.50;42.60
18712;DHT22;9485;49.386;8.674;2023-05-29T05:25:13;19.50;42.60
18712;DHT22;9485;49.386;8.674;2023-05-29T05:30:35;19.50;42.80
18712;DHT22;9485;49.386;8.674;2023-05-29T05:35:57;19.60;43.20
18712;DHT22;9485;49.386;8.674;2023-05-29T05:41:18;19.70;43.30
18712;DHT22;9485;49.386;8.674;2023-05-29T05:46:44;19.90;43.30
18712;DHT22;9485;49.386;8.674;2023-05-29T05:52:08;20.00;43.40
18712;DHT22;9485;49.386;8.674;2023-05-29T05:57:29;20.20;42.90
18712;DHT22;9485;49.386;8.674;2023-05-29T06:02:54;20.30;42.70
18712;DHT22;9485;49.386;8.674;2023-05-29T06:08:27;20.40;42.70
18712;DHT22;9485;49.386;8.674;2023-05-29T06:13:50;20.70;42.30
18712;DHT22;9485;49.386;8.674;2023-05-29T06:19:22;20.80;42.10
18712;DHT22;9485;49.386;8.674;2023-05-29T06:24:49;21.10;42.90
18712;DHT22;9485;49.386;8.674;2023-05-29T06:30:11;21.30;41.90
18712;DHT22;9485;49.386;8.674;2023-05-29T06:35:34;21.50;42.20
18712;DHT22;9485;49.386;8.674;2023-05-29T06:40:55;21.80;42.80
18712;DHT22;9485;49.386;8.674;2023-05-29T06:46:16;22.00;42.30
18712;DHT22;9485;49.386;8.674;2023-05-29T06:51:38;22.30;42.40
18712;DHT22;9485;49.386;8.674;2023-05-29T06:57:15;22.50;42.30
18712;DHT22;9485;49.386;8.674;2023-05-29T07:02:37;22.80;42.10
18712;DHT22;9485;49.386;8.674;2023-05-29T07:07:59;23.10;41.80
18712;DHT22;9485;49.386;8.674;2023-05-29T07:13:20;23.50;41.60
18712;DHT22;9485;49.386;8.674;2023-05-29T07:18:41;23.80;41.80
18712;DHT22;9485;49.386;8.674;2023-05-29T07:24:04;24.50;42.20
18712;DHT22;9485;49.386;8.674;2023-05-29T07:29:25;25.60;42.20
18712;DHT22;9485;49.386;8.674;2023-05-29T07:34:47;26.90;41.90
18712;DHT22;9485;49.386;8.674;2023-05-29T07:40:11;28.20;41.30
18712;DHT22;9485;49.386;8.674;2023-05-29T07:45:50;29.60;39.80
18712;DHT22;9485;49.386;8.674;2023-05-29T07:51:11;31.50;39.40
18712;DHT22;9485;49.386;8.674;2023-05-29T07:56:38;32.10;37.70
18712;DHT22;9485;49.386;8.674;2023-05-29T08:02:00;33.70;36.60
18712;DHT22;9485;49.386;8.674;2023-05-29T08:07:48;33.90;36.10
18712;DHT22;9485;49.386;8.674;2023-05-29T08:13:12;34.70;35.20
18712;DHT22;9485;49.386;8.674;2023-05-29T08:18:35;35.30;34.10
18712;DHT22;9485;49.386;8.674;2023-05-29T08:23:57;35.90;33.80
18712;DHT22;9485;49.386;8.674;2023-05-29T08:29:19;36.40;32.90
18712;DHT22;9485;49.386;8.674;2023-05-29T08:34:41;36.90;31.70
18712;DHT22;9485;49.386;8.674;2023-05-29T08:40:06;37.10;31.30
18712;DHT22;9485;49.386;8.674;2023-05-29T08:45:33;36.90;30.60
18712;DHT22;9485;49.386;8.674;2023-05-29T08:50:58;37.60;30.30
18712;DHT22;9485;49.386;8.674;2023-05-29T08:56:23;37.30;30.30
18712;DHT22;9485;49.386;8.674;2023-05-29T09:01:45;37.40;30.20
18712;DHT22;9485;49.386;8.674;2023-05-29T09:07:07;37.50;29.50
18712;DHT22;9485;49.386;8.674;2023-05-29T09:12:30;37.00;29.40
18712;DHT22;9485;49.386;8.674;2023-05-29T09:17:53;37.30;29.00
18712;DHT22;9485;49.386;8.674;2023-05-29T09:23:18;37.10;28.60
18712;DHT22;9485;49.386;8.674;2023-05-29T09:28:39;36.70;29.00
18712;DHT22;9485;49.386;8.674;2023-05-29T09:34:03;36.20;29.10
18712;DHT22;9485;49.386;8.674;2023-05-29T09:39:24;36.10;29.10
18712;DHT22;9485;49.386;8.674;2023-05-29T09:44:48;35.80;28.90
18712;DHT22;9485;49.386;8.674;2023-05-29T09:50:18;35.70;29.00
18712;DHT22;9485;49.386;8.674;2023-05-29T09:55:41;35.60;28.90
18712;DHT22;9485;49.386;8.674;2023-05-29T10:01:02;35.60;29.20
18712;DHT22;9485;49.386;8.674;2023-05-29T10:06:24;35.50;29.10
18712;DHT22;9485;49.386;8.674;2023-05-29T10:11:48;35.60;31.10
18712;DHT22;9485;49.386;8.674;2023-05-29T10:17:14;35.30;35.70
18712;DHT22;9485;49.386;8.674;2023-05-29T10:22:42;34.30;38.80
18712;DHT22;9485;49.386;8.674;2023-05-29T10:28:07;33.30;40.70
18712;DHT22;9485;49.386;8.674;2023-05-29T10:33:40;32.60;42.90
18712;DHT22;9485;49.386;8.674;2023-05-29T10:39:13;32.30;41.40
18712;DHT22;9485;49.386;8.674;2023-05-29T10:44:38;32.20;42.00
18712;DHT22;9485;49.386;8.674;2023-05-29T10:50:03;32.50;40.10
18712;DHT22;9485;49.386;8.674;2023-05-29T10:55:35;32.70;40.60
18712;DHT22;9485;49.386;8.674;2023-05-29T11:00:57;33.00;38.50
18712;DHT22;9485;49.386;8.674;2023-05-29T11:06:19;33.40;39.80
18712;DHT22;9485;49.386;8.674;2023-05-29T11:11:44;33.90;39.00
18712;DHT22;9485;49.386;8.674;2023-05-29T11:17:05;34.30;38.10
18712;DHT22;9485;49.386;8.674;2023-05-29T11:22:33;34.70;38.00
18712;DHT22;9485;49.386;8.674;2023-05-29T11:28:09;35.00;36.10
18712;DHT22;9485;49.386;8.674;2023-05-29T11:33:31;35.30;36.60
18712;DHT22;9485;49.386;8.674;2023-05-29T11:38:53;35.60;37.00
18712;DHT22;9485;49.386;8.674;2023-05-29T11:44:15;35.90;36.50
18712;DHT22;9485;49.386;8.674;2023-05-29T11:49:37;36.20;35.80
18712;DHT22;9485;49.386;8.674;2023-05-29T11:55:06;36.30;35.70
18712;DHT22;9485;49.386;8.674;2023-05-29T12:00:33;36.50;34.10
18712;DHT22;9485;49.386;8.674;2023-05-29T12:05:55;36.60;34.20
18712;DHT22;9485;49.386;8.674;2023-05-29T12:11:23;36.80;34.90
18712;DHT22;9485;49.386;8.674;2023-05-29T12:16:46;36.80;33.50
18712;DHT22;9485;49.386;8.674;2023-05-29T12:22:06;37.00;34.40
18712;DHT22;9485;49.386;8.674;2023-05-29T12:27:28;37.20;34.70
18712;DHT22;9485;49.386;8.674;2023-05-29T12:32:51;37.40;34.50
18712;DHT22;9485;49.386;8.674;2023-05-29T12:38:13;37.60;33.60
18712;DHT22;9485;49.386;8.674;2023-05-29T12:43:34;37.70;33.30
18712;DHT22;9485;49.386;8.674;2023-05-29T12:48:57;38.00;33.20
18712;DHT22;9485;49.386;8.674;2023-05-29T12:54:18;37.80;32.70
18712;DHT22;9485;49.386;8.674;2023-05-29T12:59:39;37.70;32.80
18712;DHT22;9485;49.386;8.674;2023-05-29T13:05:01;37.80;32.30
18712;DHT22;9485;49.386;8.674;2023-05-29T13:10:23;37.60;30.80
18712;DHT22;9485;49.386;8.674;2023-05-29T13:15:44;37.60;31.50
18712;DHT22;9485;49.386;8.674;2023-05-29T13:21:07;37.90;31.70
18712;DHT22;9485;49.386;8.674;2023-05-29T13:26:28;38.40;31.00
18712;DHT22;9485;49.386;8.674;2023-05-29T13:31:48;39.00;30.90
18712;DHT22;9485;49.386;8.674;2023-05-29T13:37:11;39.40;30.00
18712;DHT22;9485;49.386;8.674;2023-05-29T13:42:33;39.80;29.10
18712;DHT22;9485;49.386;8.674;2023-05-29T13:47:54;39.90;29.10
18712;DHT22;9485;49.386;8.674;2023-05-29T13:53:17;39.80;28.50
18712;DHT22;9485;49.386;8.674;2023-05-29T13:58:38;39.70;28.20
18712;DHT22;9485;49.386;8.674;2023-05-29T14:03:59;39.50;28.60
18712;DHT22;9485;49.386;8.674;2023-05-29T14:09:21;39.30;28.70
18712;DHT22;9485;49.386;8.674;2023-05-29T14:14:46;39.20;28.40
18712;DHT22;9485;49.386;8.674;2023-05-29T14:20:07;38.60;28.70
18712;DHT22;9485;49.386;8.674;2023-05-29T14:25:31;39.00;28.50
18712;DHT22;9485;49.386;8.674;2023-05-29T14:30:52;38.80;27.80
18712;DHT22;9485;49.386;8.674;2023-05-29T14:36:13;38.40;27.70
18712;DHT22;9485;49.386;8.674;2023-05-29T14:41:35;37.80;29.10
18712;DHT22;9485;49.386;8.674;2023-05-29T14:46:56;36.80;28.70
18712;DHT22;9485;49.386;8.674;2023-05-29T14:52:16;36.00;28.70
18712;DHT22;9485;49.386;8.674;2023-05-29T14:57:38;35.20;28.50
18712;DHT22;9485;49.386;8.674;2023-05-29T15:02:59;34.50;28.60
18712;DHT22;9485;49.386;8.674;2023-05-29T15:08:21;34.10;28.70
18712;DHT22;9485;49.386;8.674;2023-05-29T15:13:44;33.60;28.60
18712;DHT22;9485;49.386;8.674;2023-05-29T15:19:04;33.30;28.90
18712;DHT22;9485;49.386;8.674;2023-05-29T15:24:26;33.00;29.00
18712;DHT22;9485;49.386;8.674;2023-05-29T15:29:48;32.70;29.40
18712;DHT22;9485;49.386;8.674;2023-05-29T15:35:10;32.50;28.90
18712;DHT22;9485;49.386;8.674;2023-05-29T15:40:32;32.30;29.20
18712;DHT22;9485;49.386;8.674;2023-05-29T15:45:54;32.10;29.50
18712;DHT22;9485;49.386;8.674;2023-05-29T15:51:15;31.90;29.70
18712;DHT22;9485;49.386;8.674;2023-05-29T15:56:35;31.80;29.80
18712;DHT22;9485;49.386;8.674;2023-05-29T16:01:57;31.50;29.60
18712;DHT22;9485;49.386;8.674;2023-05-29T16:07:45;31.40;29.80
18712;DHT22;9485;49.386;8.674;2023-05-29T16:13:07;31.10;29.90
18712;DHT22;9485;49.386;8.674;2023-05-29T16:18:30;31.10;29.90
18712;DHT22;9485;49.386;8.674;2023-05-29T16:23:51;31.10;29.80
18712;DHT22;9485;49.386;8.674;2023-05-29T16:29:16;31.00;30.00
18712;DHT22;9485;49.386;8.674;2023-05-29T16:34:39;31.00;30.00
18712;DHT22;9485;49.386;8.674;2023-05-29T16:40:00;30.90;30.00
18712;DHT22;9485;49.386;8.674;2023-05-29T16:45:22;30.80;29.80
18712;DHT22;9485;49.386;8.674;2023-05-29T16:50:45;30.70;30.00
18712;DHT22;9485;49.386;8.674;2023-05-29T16:56:06;30.60;29.80
18712;DHT22;9485;49.386;8.674;2023-05-29T17:01:26;30.40;30.10
18712;DHT22;9485;49.386;8.674;2023-05-29T17:06:49;30.30;30.70
18712;DHT22;9485;49.386;8.674;2023-05-29T17:12:10;30.20;30.70
18712;DHT22;9485;49.386;8.674;2023-05-29T17:17:32;30.00;31.10
18712;DHT22;9485;49.386;8.674;2023-05-29T17:22:54;29.90;31.30
18712;DHT22;9485;49.386;8.674;2023-05-29T17:28:15;29.70;31.50
18712;DHT22;9485;49.386;8.674;2023-05-29T17:33:37;29.60;31.50
18712;DHT22;9485;49.386;8.674;2023-05-29T17:38:59;29.10;31.50
18712;DHT22;9485;49.386;8.674;2023-05-29T17:44:20;29.40;31.80
18712;DHT22;9485;49.386;8.674;2023-05-29T17:49:41;29.30;31.90
18712;DHT22;9485;49.386;8.674;2023-05-29T17:55:05;29.20;31.90
18712;DHT22;9485;49.386;8.674;2023-05-29T18:00:26;29.10;32.00
18712;DHT22;9485;49.386;8.674;2023-05-29T18:05:48;29.00;32.00
18712;DHT22;9485;49.386;8.674;2023-05-29T18:11:11;28.80;35.60
18712;DHT22;9485;49.386;8.674;2023-05-29T18:16:34;28.30;34.40
18712;DHT22;9485;49.386;8.674;2023-05-29T18:21:55;28.60;34.50
18712;DHT22;9485;49.386;8.674;2023-05-29T18:27:18;27.60;34.10
18712;DHT22;9485;49.386;8.674;2023-05-29T18:32:39;27.50;34.30
18712;DHT22;9485;49.386;8.674;2023-05-29T18:38:01;27.50;34.30
18712;DHT22;9485;49.386;8.674;2023-05-29T18:43:24;27.50;34.20
18712;DHT22;9485;49.386;8.674;2023-05-29T18:48:45;27.40;34.10
18712;DHT22;9485;49.386;8.674;2023-05-29T18:54:06;27.40;34.10
18712;DHT22;9485;49.386;8.674;2023-05-29T18:59:30;27.60;34.30
18712;DHT22;9485;49.386;8.674;2023-05-29T19:04:51;27.30;34.20
18712;DHT22;9485;49.386;8.674;2023-05-29T19:10:11;28.00;34.60
18712;DHT22;9485;49.386;8.674;2023-05-29T19:15:34;27.20;34.20
18712;DHT22;9485;49.386;8.674;2023-05-29T19:20:55;27.10;34.20
18712;DHT22;9485;49.386;8.674;2023-05-29T19:26:15;27.00;34.30
18712;DHT22;9485;49.386;8.674;2023-05-29T19:31:37;26.90;34.30
18712;DHT22;9485;49.386;8.674;2023-05-29T19:36:58;26.80;34.40
18712;DHT22;9485;49.386;8.674;2023-05-29T19:42:19;26.70;34.50
18712;DHT22;9485;49.386;8.674;2023-05-29T19:47:44;26.60;34.60
18712;DHT22;9485;49.386;8.674;2023-05-29T19:53:04;26.50;34.70
18712;DHT22;9485;49.386;8.674;2023-05-29T19:58:25;26.40;34.80
18712;DHT22;9485;49.386;8.674;2023-05-29T20:03:47;26.20;34.80
18712;DHT22;9485;49.386;8.674;2023-05-29T20:09:08;26.10;35.00
18712;DHT22;9485;49.386;8.674;2023-05-29T20:14:28;25.10;34.40
18712;DHT22;9485;49.386;8.674;2023-05-29T20:19:51;25.90;35.00
18712;DHT22;9485;49.386;8.674;2023-05-29T20:25:13;25.70;35.00
18712;DHT22;9485;49.386;8.674;2023-05-29T20:30:35;25.70;35.20
18712;DHT22;9485;49.386;8.674;2023-05-29T20:35:57;25.60;35.20
18712;DHT22;9485;49.386;8.674;2023-05-29T20:41:19;25.50;35.20
18712;DHT22;9485;49.386;8.674;2023-05-29T20:46:41;25.40;35.20
18712;DHT22;9485;49.386;8.674;2023-05-29T20:52:03;25.30;35.20
18712;DHT22;9485;49.386;8.674;2023-05-29T20:57:25;25.30;35.30
18712;DHT22;9485;49.386;8.674;2023-05-29T21:02:47;25.20;35.40
18712;DHT22;9485;49.386;8.674;2023-05-29T21:08:09;25.20;35.50
18712;DHT22;9485;49.386;8.674;2023-05-29T21:13:31;25.10;35.50
18712;DHT22;9485;49.386;8.674;2023-05-29T21:18:52;25.00;35.50
18712;DHT22;9485;49.386;8.674;2023-05-29T21:24:14;25.00;35.60
18712;DHT22;9485;49.386;8.674;2023-05-29T21:29:35;25.00;35.80
18712;DHT22;9485;49.386;8.674;2023-05-29T21:34:56;24.90;35.80
18712;DHT22;9485;49.386;8.674;2023-05-29T21:40:17;24.80;35.90
18712;DHT22;9485;49.386;8.674;2023-05-29T21:45:39;24.70;36.10
18712;DHT22;9485;49.386;8.674;2023-05-29T21:51:01;24.60;36.10
18712;DHT22;9485;49.386;8.674;2023-05-29T21:56:23;24.50;36.20
18712;DHT22;9485;49.386;8.674;2023-05-29T22:01:45;24.40;36.40
18712;DHT22;9485;49.386;8.674;2023-05-29T22:07:07;24.40;36.50
18712;DHT22;9485;49.386;8.674;2023-05-29T22:12:29;24.30;36.60
18712;DHT22;9485;49.386;8.674;2023-05-29T22:17:50;24.30;36.90
18712;DHT22;9485;49.386;8.674;2023-05-29T22:23:11;24.10;36.80
18712;DHT22;9485;49.386;8.674;2023-05-29T22:28:33;24.90;37.30
18712;DHT22;9485;49.386;8.674;2023-05-29T22:33:54;24.00;37.20
18712;DHT22;9485;49.386;8.674;2023-05-29T22:39:15;24.00;38.00
18712;DHT22;9485;49.386;8.674;2023-05-29T22:44:37;23.80;38.10
18712;DHT22;9485;49.386;8.674;2023-05-29T22:49:57;23.60;38.30
18712;DHT22;9485;49.386;8.674;2023-05-29T22:55:17;23.50;38.20
18712;DHT22;9485;49.386;8.674;2023-05-29T23:00:40;23.40;38.30
18712;DHT22;9485;49.386;8.674;2023-05-29T23:06:00;23.40;38.50
18712;DHT22;9485;49.386;8.674;2023-05-29T23:11:21;23.40;38.60
18712;DHT22;9485;49.386;8.674;2023-05-29T23:16:43;23.40;38.60
18712;DHT22;9485;49.386;8.674;2023-05-29T23:22:05;23.30;38.70
18712;DHT22;9485;49.386;8.674;2023-05-29T23:27:25;23.30;38.70
18712;DHT22;9485;49.386;8.674;2023-05-29T23:32:47;23.30;38.70
18712;DHT22;9485;49.386;8.674;2023-05-29T23:38:09;23.30;38.90
18712;DHT22;9485;49.386;8.674;2023-05-29T23:43:31;23.30;39.00
18712;DHT22;9485;49.386;8.674;2023-05-29T23:48:53;23.20;39.00
18712;DHT22;9485;49.386;8.674;2023-05-29T23:54:14;23.20;39.20
18712;DHT22;9485;49.386;8.674;2023-05-29T23:59:35;23.10;39.20
